Home > Products > Valid Products > TAF

000
FTUS45 KBOI 270524
TAFJER
TAF
KJER 270524Z 2706/2806 11006KT P6SM SCT150
     FM271800 24008KT P6SM BKN150 PROB30 2721/2724 23011G22KT P6SM
      -SHRA BKN090
     FM280300 VRB06KT P6SM SCT250=



000
FTUS45 KBOI 270524
TAFTWF
TAF
KTWF 270524Z 2706/2806 23008KT P6SM SCT150
     FM271800 30008KT P6SM BKN150 PROB30 2721/2724 24011G22KT P6SM
      -SHRA BKN090
     FM280300 22007KT P6SM SCT250=



000
FTUS45 KBOI 270524
TAFTWF
TAF
KTWF 270524Z 2706/2806 23008KT P6SM SCT150
     FM271800 30008KT P6SM BKN150 PROB30 2721/2724 24011G22KT P6SM
      -SHRA BKN090
     FM280300 22007KT P6SM SCT250=



000
FTUS45 KBOI 270524
TAFJER
TAF
KJER 270524Z 2706/2806 11006KT P6SM SCT150
     FM271800 24008KT P6SM BKN150 PROB30 2721/2724 23011G22KT P6SM
      -SHRA BKN090
     FM280300 VRB06KT P6SM SCT250=



000
FTUS45 KBOI 270523
TAFBOI
TAF
KBOI 270523Z 2706/2806 VRB05KT P6SM SCT150
     FM272000 31008G15KT P6SM BKN150 PROB30 2721/2801 32011G21KT
      P6SM -SHRA BKN090
     FM280200 33009KT P6SM BKN200
     FM280500 VRB05KT P6SM SCT250=



000
FTUS45 KBOI 270523
TAFBOI
TAF
KBOI 270523Z 2706/2806 VRB05KT P6SM SCT150
     FM272000 31008G15KT P6SM BKN150 PROB30 2721/2801 32011G21KT
      P6SM -SHRA BKN090
     FM280200 33009KT P6SM BKN200
     FM280500 VRB05KT P6SM SCT250=



000
FTUS45 KBOI 270520
TAFMYL
TAF
KMYL 270520Z 2706/2806 VRB06KT P6SM VCSH BKN110
     FM270900 VRB02KT P6SM BKN150
     FM272000 27006KT P6SM VCSH BKN060 OVC120
     FM272300 30006KT P6SM -SHRA BKN040
     FM280300 34006KT P6SM VCSH BKN080=



000
FTUS45 KBOI 270520
TAFBNO
TAF
KBNO 270520Z 2706/2806 27006KT P6SM SCT200
     FM272100 23006G12KT P6SM BKN150=



000
FTUS45 KBOI 270520
TAFBKE
TAF
KBKE 270520Z 2706/2806 30008KT P6SM BKN110
     FM270900 VRB03KT P6SM BKN200
     FM271700 33008KT P6SM BKN080 PROB30 2720/2724 32011G22KT P6SM
      -SHRA BKN060
     FM280400 29006KT P6SM SCT090=



000
FTUS45 KBOI 270339 AAB
TAFBOI
TAF AMD
KBOI 270339Z 2704/2724 VRB06KT P6SM SCT070 OVC200
     FM270405 32011G25KT P6SM -TSRA FEW045CB BKN110
     FM270500 VRB05KT P6SM SCT150
     FM272000 31008G15KT P6SM BKN150 PROB30 2721/2724 32011G21KT
      P6SM -SHRA BKN090=



000
FTUS45 KBOI 270339 AAB
TAFBOI
TAF AMD
KBOI 270339Z 2704/2724 VRB06KT P6SM SCT070 OVC200
     FM270405 32011G25KT P6SM -TSRA FEW045CB BKN110
     FM270500 VRB05KT P6SM SCT150
     FM272000 31008G15KT P6SM BKN150 PROB30 2721/2724 32011G21KT
      P6SM -SHRA BKN090=



000
FTUS45 KBOI 270339 AAB
TAFBOI
TAF AMD
KBOI 270339Z 2704/2724 VRB06KT P6SM SCT070 OVC200
     FM270405 32011G25KT P6SM -TSRA FEW045CB BKN110
     FM270500 VRB05KT P6SM SCT150
     FM272000 31008G15KT P6SM BKN150 PROB30 2721/2724 32011G21KT
      P6SM -SHRA BKN090=



000
FTUS45 KBOI 270155 AAA
TAFBKE
TAF AMD
KBKE 270155Z 2702/2724 33011G23KT P6SM VCTS FEW050CB BKN070 OVC110
     FM270330 30008KT P6SM BKN110
     FM270900 VRB03KT P6SM BKN200
     FM271700 33008KT P6SM BKN080 PROB30 2720/2724 32011G22KT P6SM
      -SHRA BKN060=



000
FTUS45 KBOI 270155 AAA
TAFBKE
TAF AMD
KBKE 270155Z 2702/2724 33011G23KT P6SM VCTS FEW050CB BKN070 OVC110
     FM270330 30008KT P6SM BKN110
     FM270900 VRB03KT P6SM BKN200
     FM271700 33008KT P6SM BKN080 PROB30 2720/2724 32011G22KT P6SM
      -SHRA BKN060=



000
FTUS45 KBOI 270155 AAA
TAFBKE
TAF AMD
KBKE 270155Z 2702/2724 33011G23KT P6SM VCTS FEW050CB BKN070 OVC110
     FM270330 30008KT P6SM BKN110
     FM270900 VRB03KT P6SM BKN200
     FM271700 33008KT P6SM BKN080 PROB30 2720/2724 32011G22KT P6SM
      -SHRA BKN060=



000
FTUS45 KBOI 270155 AAA
TAFBKE
TAF AMD
KBKE 270155Z 2702/2724 33011G23KT P6SM VCTS FEW050CB BKN070 OVC110
     FM270330 30008KT P6SM BKN110
     FM270900 VRB03KT P6SM BKN200
     FM271700 33008KT P6SM BKN080 PROB30 2720/2724 32011G22KT P6SM
      -SHRA BKN060=



000
FTUS45 KBOI 262341
TAFBKE
TAF
KBKE 262341Z 2700/2724 31011KT P6SM VCSH BKN070
     FM270900 VRB03KT P6SM BKN200
     FM271700 33008KT P6SM BKN080 PROB30 2720/2724 32011G22KT P6SM
      -SHRA BKN060=



000
FTUS45 KBOI 262341
TAFBKE
TAF
KBKE 262341Z 2700/2724 31011KT P6SM VCSH BKN070
     FM270900 VRB03KT P6SM BKN200
     FM271700 33008KT P6SM BKN080 PROB30 2720/2724 32011G22KT P6SM
      -SHRA BKN060=



000
FTUS45 KBOI 262341
TAFBKE
TAF
KBKE 262341Z 2700/2724 31011KT P6SM VCSH BKN070
     FM270900 VRB03KT P6SM BKN200
     FM271700 33008KT P6SM BKN080 PROB30 2720/2724 32011G22KT P6SM
      -SHRA BKN060=



000
FTUS45 KBOI 262336
TAFMYL
TAF
KMYL 262336Z 2700/2724 VRB06KT P6SM VCSH BKN110
     FM270900 VRB02KT P6SM BKN150
     FM272000 27006KT P6SM VCSH BKN060 OVC120=



000
FTUS45 KBOI 262336
TAFMYL
TAF
KMYL 262336Z 2700/2724 VRB06KT P6SM VCSH BKN110
     FM270900 VRB02KT P6SM BKN150
     FM272000 27006KT P6SM VCSH BKN060 OVC120=



000
FTUS45 KBOI 262333
TAFJER
TAF
KJER 262333Z 2700/2724 26008G19KT P6SM -SHRA SCT050 BKN110
     FM270300 11006KT P6SM SCT150
      TEMPO 2703/2705 VRB06KT P6SM -SHRA BKN080 OVC200
     FM271800 24008KT P6SM BKN150 PROB30 2721/2724 23011G22KT P6SM
      -SHRA BKN090=



000
FTUS45 KBOI 262333
TAFJER
TAF
KJER 262333Z 2700/2724 26008G19KT P6SM -SHRA SCT050 BKN110
     FM270300 11006KT P6SM SCT150
      TEMPO 2703/2705 VRB06KT P6SM -SHRA BKN080 OVC200
     FM271800 24008KT P6SM BKN150 PROB30 2721/2724 23011G22KT P6SM
      -SHRA BKN090=



000
FTUS45 KBOI 262329
TAFTWF
TAF
KTWF 262329Z 2700/2724 26014G24KT P6SM -SHRA SCT050 BKN110
     FM270200 23008KT P6SM SCT150
      TEMPO 2702/2704 VRB06KT P6SM -SHRA BKN080 OVC200
     FM271800 30008KT P6SM BKN150 PROB30 2721/2724 24011G22KT P6SM
      -SHRA BKN090=



000
FTUS45 KBOI 262329
TAFTWF
TAF
KTWF 262329Z 2700/2724 26014G24KT P6SM -SHRA SCT050 BKN110
     FM270200 23008KT P6SM SCT150
      TEMPO 2702/2704 VRB06KT P6SM -SHRA BKN080 OVC200
     FM271800 30008KT P6SM BKN150 PROB30 2721/2724 24011G22KT P6SM
      -SHRA BKN090=



000
FTUS45 KBOI 262329
TAFTWF
TAF
KTWF 262329Z 2700/2724 26014G24KT P6SM -SHRA SCT050 BKN110
     FM270200 23008KT P6SM SCT150
      TEMPO 2702/2704 VRB06KT P6SM -SHRA BKN080 OVC200
     FM271800 30008KT P6SM BKN150 PROB30 2721/2724 24011G22KT P6SM
      -SHRA BKN090=



000
FTUS45 KBOI 262320
TAFBOI
TAF
KBOI 262320Z 2700/2724 27008KT P6SM VCSH BKN070
     FM270600 VRB05KT P6SM SCT150
     FM272000 31008G15KT P6SM BKN150 PROB30 2721/2724 32011G21KT
      P6SM -SHRA BKN090=



000
FTUS45 KBOI 262320
TAFBOI
TAF
KBOI 262320Z 2700/2724 27008KT P6SM VCSH BKN070
     FM270600 VRB05KT P6SM SCT150
     FM272000 31008G15KT P6SM BKN150 PROB30 2721/2724 32011G21KT
      P6SM -SHRA BKN090=



000
FTUS45 KBOI 262320
TAFBNO
TAF
KBNO 262320Z 2700/2724 28008KT P6SM FEW080
     FM270600 VRB04KT P6SM SCT200
     FM272100 23006G12KT P6SM BKN150=



000
FTUS45 KBOI 262320
TAFBNO
TAF
KBNO 262320Z 2700/2724 28008KT P6SM FEW080
     FM270600 VRB04KT P6SM SCT200
     FM272100 23006G12KT P6SM BKN150=



000
FTUS45 KBOI 262218 AAC
TAFBOI
TAF AMD
KBOI 262218Z 2622/2718 VRB06KT P6SM VCSH SCT060 BKN100
     FM262330 19008G13KT P6SM VCSH BKN060 BKN250
     FM270200 VRB05KT P6SM VCSH BKN100=



000
FTUS45 KBOI 262218 AAC
TAFBOI
TAF AMD
KBOI 262218Z 2622/2718 VRB06KT P6SM VCSH SCT060 BKN100
     FM262330 19008G13KT P6SM VCSH BKN060 BKN250
     FM270200 VRB05KT P6SM VCSH BKN100=



000
FTUS45 KBOI 262155 AAB
TAFTWF
TAF AMD
KTWF 262155Z 2622/2718 32008KT P6SM VCSH SCT060 BKN250
     FM262330 27011G22KT 6SM -TSRA BKN040CB OVC150
     FM270200 21008KT P6SM SCT150
      TEMPO 2702/2704 09008KT P6SM -SHRA BKN080 OVC200=



000
FTUS45 KBOI 262155 AAB
TAFTWF
TAF AMD
KTWF 262155Z 2622/2718 32008KT P6SM VCSH SCT060 BKN250
     FM262330 27011G22KT 6SM -TSRA BKN040CB OVC150
     FM270200 21008KT P6SM SCT150
      TEMPO 2702/2704 09008KT P6SM -SHRA BKN080 OVC200=



000
FTUS45 KBOI 261829 AAA
TAFTWF
TAF AMD
KTWF 261829Z 2618/2718 VRB06KT P6SM VCTS BKN080CB
     FM270400 19008KT P6SM VCSH OVC070=



000
FTUS45 KBOI 261829 AAA
TAFTWF
TAF AMD
KTWF 261829Z 2618/2718 VRB06KT P6SM VCTS BKN080CB
     FM270400 19008KT P6SM VCSH OVC070=



000
FTUS45 KBOI 261724
TAFTWF
TAF
KTWF 261724Z 2618/2718 VRB06KT P6SM VCSH BKN080
     FM270400 19008KT P6SM VCSH OVC070=



000
FTUS45 KBOI 261724
TAFBKE
TAF
KBKE 261724Z 2618/2718 31011KT P6SM BKN100
     FM270600 VRB05KT P6SM VCSH BKN070=



000
FTUS45 KBOI 261724
TAFBNO
TAF
KBNO 261724Z 2618/2718 30008KT P6SM SCT100=



000
FTUS45 KBOI 261724
TAFBOI
TAF
KBOI 261724Z 2618/2718 12005KT P6SM SKC
     FM262000 32007KT P6SM VCSH SCT060 BKN100
     FM270300 VRB05KT P6SM VCSH BKN100=



000
FTUS45 KBOI 261724
TAFTWF
TAF
KTWF 261724Z 2618/2718 VRB06KT P6SM VCSH BKN080
     FM270400 19008KT P6SM VCSH OVC070=



000
FTUS45 KBOI 261724
TAFJER
TAF
KJER 261724Z 2618/2718 VRB06KT P6SM VCSH BKN090
     FM270400 07007KT P6SM VCSH BKN080=



000
FTUS45 KBOI 261724
TAFBNO
TAF
KBNO 261724Z 2618/2718 30008KT P6SM SCT100=



000
FTUS45 KBOI 261724
TAFMYL
TAF
KMYL 261724Z 2618/2718 VRB06KT P6SM SCT050
     FM270500 VRB04KT P6SM VCSH BKN050=



000
FTUS45 KBOI 261724
TAFMYL
TAF
KMYL 261724Z 2618/2718 VRB06KT P6SM SCT050
     FM270500 VRB04KT P6SM VCSH BKN050=



000
FTUS45 KBOI 261724
TAFTWF
TAF
KTWF 261724Z 2618/2718 VRB06KT P6SM VCSH BKN080
     FM270400 19008KT P6SM VCSH OVC070=



000
FTUS45 KBOI 261724
TAFJER
TAF
KJER 261724Z 2618/2718 VRB06KT P6SM VCSH BKN090
     FM270400 07007KT P6SM VCSH BKN080=



000
FTUS45 KBOI 261724
TAFJER
TAF
KJER 261724Z 2618/2718 VRB06KT P6SM VCSH BKN090
     FM270400 07007KT P6SM VCSH BKN080=



000
FTUS45 KBOI 261724
TAFBKE
TAF
KBKE 261724Z 2618/2718 31011KT P6SM BKN100
     FM270600 VRB05KT P6SM VCSH BKN070=



000
FTUS45 KBOI 261724
TAFBOI
TAF
KBOI 261724Z 2618/2718 12005KT P6SM SKC
     FM262000 32007KT P6SM VCSH SCT060 BKN100
     FM270300 VRB05KT P6SM VCSH BKN100=



000
FTUS45 KBOI 261724
TAFBNO
TAF
KBNO 261724Z 2618/2718 30008KT P6SM SCT100=



000
FTUS45 KBOI 261724
TAFBKE
TAF
KBKE 261724Z 2618/2718 31011KT P6SM BKN100
     FM270600 VRB05KT P6SM VCSH BKN070=



000
FTUS45 KBOI 261724
TAFTWF
TAF
KTWF 261724Z 2618/2718 VRB06KT P6SM VCSH BKN080
     FM270400 19008KT P6SM VCSH OVC070=



000
FTUS45 KBOI 261724
TAFBOI
TAF
KBOI 261724Z 2618/2718 12005KT P6SM SKC
     FM262000 32007KT P6SM VCSH SCT060 BKN100
     FM270300 VRB05KT P6SM VCSH BKN100=



000
FTUS45 KBOI 261724
TAFMYL
TAF
KMYL 261724Z 2618/2718 VRB06KT P6SM SCT050
     FM270500 VRB04KT P6SM VCSH BKN050=



000
FTUS45 KBOI 261724
TAFBNO
TAF
KBNO 261724Z 2618/2718 30008KT P6SM SCT100=



000
FTUS45 KBOI 261724
TAFMYL
TAF
KMYL 261724Z 2618/2718 VRB06KT P6SM SCT050
     FM270500 VRB04KT P6SM VCSH BKN050=



000
FTUS45 KBOI 261724
TAFBOI
TAF
KBOI 261724Z 2618/2718 12005KT P6SM SKC
     FM262000 32007KT P6SM VCSH SCT060 BKN100
     FM270300 VRB05KT P6SM VCSH BKN100=



000
FTUS45 KBOI 261724
TAFJER
TAF
KJER 261724Z 2618/2718 VRB06KT P6SM VCSH BKN090
     FM270400 07007KT P6SM VCSH BKN080=



000
FTUS45 KBOI 261724
TAFBKE
TAF
KBKE 261724Z 2618/2718 31011KT P6SM BKN100
     FM270600 VRB05KT P6SM VCSH BKN070=



000
FTUS45 KBOI 261337 AAA
TAFMYL
TAF AMD
KMYL 261337Z 2614/2712 22007KT P6SM SCT050
     FM270500 35004KT P6SM VCSH BKN050=



000
FTUS45 KBOI 261337 AAA
TAFMYL
TAF AMD
KMYL 261337Z 2614/2712 22007KT P6SM SCT050
     FM270500 35004KT P6SM VCSH BKN050=



000
FTUS45 KBOI 261137
TAFJER
TAF
KJER 261137Z 2612/2712 VRB05KT P6SM BKN100
     FM261800 25010KT P6SM VCSH BKN090
     FM270400 07007KT P6SM VCSH BKN080=



000
FTUS45 KBOI 261137
TAFTWF
TAF
KTWF 261137Z 2612/2712 20010KT P6SM BKN100
     FM261800 30010KT P6SM VCSH BKN080
     FM270400 19008KT P6SM VCSH OVC070=



000
FTUS45 KBOI 261137
TAFTWF
TAF
KTWF 261137Z 2612/2712 20010KT P6SM BKN100
     FM261800 30010KT P6SM VCSH BKN080
     FM270400 19008KT P6SM VCSH OVC070=



000
FTUS45 KBOI 261137
TAFBKE
TAF
KBKE 261137Z 2612/2712 VRB05KT P6SM SKC
     FM261900 31011KT P6SM VCSH BKN100
     FM270600 VRB05KT P6SM VCSH BKN070=



000
FTUS45 KBOI 261137
TAFBNO
TAF
KBNO 261137Z 2612/2712 30008KT P6SM SCT100=



000
FTUS45 KBOI 261137
TAFBOI
TAF
KBOI 261137Z 2612/2712 12005KT P6SM SKC
     FM262000 32007KT P6SM VCSH SCT060 BKN100
     FM270300 VRB05KT P6SM VCSH BKN100=



000
FTUS45 KBOI 261137
TAFMYL
TAF
KMYL 261137Z 2612/2712 VRB03KT 1SM BR BKN001
     FM261400 22007KT P6SM SCT050
     FM270500 35004KT P6SM VCSH BKN050=



000
FTUS45 KBOI 261137
TAFBKE
TAF
KBKE 261137Z 2612/2712 VRB05KT P6SM SKC
     FM261900 31011KT P6SM VCSH BKN100
     FM270600 VRB05KT P6SM VCSH BKN070=



000
FTUS45 KBOI 261137
TAFBNO
TAF
KBNO 261137Z 2612/2712 30008KT P6SM SCT100=



000
FTUS45 KBOI 261137
TAFBOI
TAF
KBOI 261137Z 2612/2712 12005KT P6SM SKC
     FM262000 32007KT P6SM VCSH SCT060 BKN100
     FM270300 VRB05KT P6SM VCSH BKN100=



000
FTUS45 KBOI 261137
TAFJER
TAF
KJER 261137Z 2612/2712 VRB05KT P6SM BKN100
     FM261800 25010KT P6SM VCSH BKN090
     FM270400 07007KT P6SM VCSH BKN080=



000
FTUS45 KBOI 261137
TAFMYL
TAF
KMYL 261137Z 2612/2712 VRB03KT 1SM BR BKN001
     FM261400 22007KT P6SM SCT050
     FM270500 35004KT P6SM VCSH BKN050=



000
FTUS45 KBOI 261137
TAFBKE
TAF
KBKE 261137Z 2612/2712 VRB05KT P6SM SKC
     FM261900 31011KT P6SM VCSH BKN100
     FM270600 VRB05KT P6SM VCSH BKN070=



000
FTUS45 KBOI 261137
TAFBOI
TAF
KBOI 261137Z 2612/2712 12005KT P6SM SKC
     FM262000 32007KT P6SM VCSH SCT060 BKN100
     FM270300 VRB05KT P6SM VCSH BKN100=



000
FTUS45 KBOI 261137
TAFJER
TAF
KJER 261137Z 2612/2712 VRB05KT P6SM BKN100
     FM261800 25010KT P6SM VCSH BKN090
     FM270400 07007KT P6SM VCSH BKN080=



000
FTUS45 KBOI 261137
TAFTWF
TAF
KTWF 261137Z 2612/2712 20010KT P6SM BKN100
     FM261800 30010KT P6SM VCSH BKN080
     FM270400 19008KT P6SM VCSH OVC070=



000
FTUS45 KBOI 261137
TAFBNO
TAF
KBNO 261137Z 2612/2712 30008KT P6SM SCT100=



000
FTUS45 KBOI 261137
TAFMYL
TAF
KMYL 261137Z 2612/2712 VRB03KT 1SM BR BKN001
     FM261400 22007KT P6SM SCT050
     FM270500 35004KT P6SM VCSH BKN050=



000
FTUS45 KBOI 261137
TAFJER
TAF
KJER 261137Z 2612/2712 VRB05KT P6SM BKN100
     FM261800 25010KT P6SM VCSH BKN090
     FM270400 07007KT P6SM VCSH BKN080=



000
FTUS45 KBOI 261137
TAFBOI
TAF
KBOI 261137Z 2612/2712 12005KT P6SM SKC
     FM262000 32007KT P6SM VCSH SCT060 BKN100
     FM270300 VRB05KT P6SM VCSH BKN100=



000
FTUS45 KBOI 261137
TAFTWF
TAF
KTWF 261137Z 2612/2712 20010KT P6SM BKN100
     FM261800 30010KT P6SM VCSH BKN080
     FM270400 19008KT P6SM VCSH OVC070=



000
FTUS45 KBOI 261137
TAFMYL
TAF
KMYL 261137Z 2612/2712 VRB03KT 1SM BR BKN001
     FM261400 22007KT P6SM SCT050
     FM270500 35004KT P6SM VCSH BKN050=



000
FTUS45 KBOI 261137
TAFBNO
TAF
KBNO 261137Z 2612/2712 30008KT P6SM SCT100=



000
FTUS45 KBOI 261137
TAFBKE
TAF
KBKE 261137Z 2612/2712 VRB05KT P6SM SKC
     FM261900 31011KT P6SM VCSH BKN100
     FM270600 VRB05KT P6SM VCSH BKN070=



000
FTUS45 KBOI 260852 AAA
TAFMYL
TAF AMD
KMYL 260852Z 2609/2706 VRB03KT 1SM BR BKN001
     FM261400 VRB05KT P6SM SKC
     FM261900 VRB06KT P6SM VCTS SCT060CB BKN100
     FM270300 VRB03KT P6SM SCT100=



000
FTUS45 KBOI 260852 AAA
TAFMYL
TAF AMD
KMYL 260852Z 2609/2706 VRB03KT 1SM BR BKN001
     FM261400 VRB05KT P6SM SKC
     FM261900 VRB06KT P6SM VCTS SCT060CB BKN100
     FM270300 VRB03KT P6SM SCT100=



000
FTUS45 KBOI 260520
TAFJER
TAF
KJER 260520Z 2606/2706 VRB05KT P6SM BKN100
     FM261800 VRB06KT P6SM VCTS SCT060CB BKN100
     FM270400 18006KT P6SM VCSH BKN100=



000
FTUS45 KBOI 260520
TAFBKE
TAF
KBKE 260520Z 2606/2706 VRB03KT P6SM SKC
     FM261900 32007KT P6SM SCT120=



000
FTUS45 KBOI 260520
TAFMYL
TAF
KMYL 260520Z 2606/2706 VRB04KT P6SM BKN100
     FM260900 VRB03KT P6SM VCFG SKC
     FM261900 VRB06KT P6SM VCTS SCT060CB BKN100
     FM270300 VRB03KT P6SM SCT100=



000
FTUS45 KBOI 260520
TAFMYL
TAF
KMYL 260520Z 2606/2706 VRB04KT P6SM BKN100
     FM260900 VRB03KT P6SM VCFG SKC
     FM261900 VRB06KT P6SM VCTS SCT060CB BKN100
     FM270300 VRB03KT P6SM SCT100=



000
FTUS45 KBOI 260520
TAFBNO
TAF
KBNO 260520Z 2606/2706 VRB06KT P6SM SKC
     FM270000 28008KT P6SM SCT120=



000
FTUS45 KBOI 260520
TAFMYL
TAF
KMYL 260520Z 2606/2706 VRB04KT P6SM BKN100
     FM260900 VRB03KT P6SM VCFG SKC
     FM261900 VRB06KT P6SM VCTS SCT060CB BKN100
     FM270300 VRB03KT P6SM SCT100=



000
FTUS45 KBOI 260520
TAFJER
TAF
KJER 260520Z 2606/2706 VRB05KT P6SM BKN100
     FM261800 VRB06KT P6SM VCTS SCT060CB BKN100
     FM270400 18006KT P6SM VCSH BKN100=



000
FTUS45 KBOI 260520
TAFBKE
TAF
KBKE 260520Z 2606/2706 VRB03KT P6SM SKC
     FM261900 32007KT P6SM SCT120=



000
FTUS45 KBOI 260520
TAFTWF
TAF
KTWF 260520Z 2606/2706 21010KT P6SM BKN100
     FM261800 29007KT P6SM VCTS SCT060CB BKN100
     FM270400 19008KT P6SM VCSH BKN100=



000
FTUS45 KBOI 260520
TAFBOI
TAF
KBOI 260520Z 2606/2706 VRB06KT P6SM BKN100
     FM262000 32007KT P6SM SCT060 BKN100
     FM270300 VRB04KT P6SM SCT100=



000
FTUS45 KBOI 260520
TAFTWF
TAF
KTWF 260520Z 2606/2706 21010KT P6SM BKN100
     FM261800 29007KT P6SM VCTS SCT060CB BKN100
     FM270400 19008KT P6SM VCSH BKN100=



000
FTUS45 KBOI 260520
TAFBKE
TAF
KBKE 260520Z 2606/2706 VRB03KT P6SM SKC
     FM261900 32007KT P6SM SCT120=



000
FTUS45 KBOI 260520
TAFBNO
TAF
KBNO 260520Z 2606/2706 VRB06KT P6SM SKC
     FM270000 28008KT P6SM SCT120=



000
FTUS45 KBOI 260520
TAFBNO
TAF
KBNO 260520Z 2606/2706 VRB06KT P6SM SKC
     FM270000 28008KT P6SM SCT120=



000
FTUS45 KBOI 260520
TAFBOI
TAF
KBOI 260520Z 2606/2706 VRB06KT P6SM BKN100
     FM262000 32007KT P6SM SCT060 BKN100
     FM270300 VRB04KT P6SM SCT100=



000
FTUS45 KBOI 260520
TAFBKE
TAF
KBKE 260520Z 2606/2706 VRB03KT P6SM SKC
     FM261900 32007KT P6SM SCT120=



000
FTUS45 KBOI 260520
TAFBOI
TAF
KBOI 260520Z 2606/2706 VRB06KT P6SM BKN100
     FM262000 32007KT P6SM SCT060 BKN100
     FM270300 VRB04KT P6SM SCT100=



000
FTUS45 KBOI 260520
TAFJER
TAF
KJER 260520Z 2606/2706 VRB05KT P6SM BKN100
     FM261800 VRB06KT P6SM VCTS SCT060CB BKN100
     FM270400 18006KT P6SM VCSH BKN100=



000
FTUS45 KBOI 260520
TAFTWF
TAF
KTWF 260520Z 2606/2706 21010KT P6SM BKN100
     FM261800 29007KT P6SM VCTS SCT060CB BKN100
     FM270400 19008KT P6SM VCSH BKN100=



000
FTUS45 KBOI 260520
TAFBNO
TAF
KBNO 260520Z 2606/2706 VRB06KT P6SM SKC
     FM270000 28008KT P6SM SCT120=



000
FTUS45 KBOI 260520
TAFMYL
TAF
KMYL 260520Z 2606/2706 VRB04KT P6SM BKN100
     FM260900 VRB03KT P6SM VCFG SKC
     FM261900 VRB06KT P6SM VCTS SCT060CB BKN100
     FM270300 VRB03KT P6SM SCT100=



000
FTUS45 KBOI 260520
TAFJER
TAF
KJER 260520Z 2606/2706 VRB05KT P6SM BKN100
     FM261800 VRB06KT P6SM VCTS SCT060CB BKN100
     FM270400 18006KT P6SM VCSH BKN100=



000
FTUS45 KBOI 260520
TAFTWF
TAF
KTWF 260520Z 2606/2706 21010KT P6SM BKN100
     FM261800 29007KT P6SM VCTS SCT060CB BKN100
     FM270400 19008KT P6SM VCSH BKN100=



000
FTUS45 KBOI 260520
TAFBOI
TAF
KBOI 260520Z 2606/2706 VRB06KT P6SM BKN100
     FM262000 32007KT P6SM SCT060 BKN100
     FM270300 VRB04KT P6SM SCT100=



000
FTUS45 KBOI 260305 AAA
TAFBOI
TAF AMD
KBOI 260305Z 2603/2624 VRB06KT P6SM VCTS SCT050CB BKN080
     FM262000 32007KT P6SM SCT060 BKN100=



000
FTUS45 KBOI 260305 AAA
TAFBOI
TAF AMD
KBOI 260305Z 2603/2624 VRB06KT P6SM VCTS SCT050CB BKN080
     FM262000 32007KT P6SM SCT060 BKN100=



000
FTUS45 KBOI 260305 AAA
TAFBOI
TAF AMD
KBOI 260305Z 2603/2624 VRB06KT P6SM VCTS SCT050CB BKN080
     FM262000 32007KT P6SM SCT060 BKN100=



000
FTUS45 KBOI 252334 CCA
TAFBNO
TAF COR
KBNO 252334Z 2600/2624 30015KT P6SM SKC
     FM260200 VRB05KT P6SM SKC=



000
FTUS45 KBOI 252334 CCA
TAFBNO
TAF COR
KBNO 252334Z 2600/2624 30015KT P6SM SKC
     FM260200 VRB05KT P6SM SKC=



000
FTUS45 KBOI 252334 CCA
TAFBNO
TAF COR
KBNO 252334Z 2600/2624 30015KT P6SM SKC
     FM260200 VRB05KT P6SM SKC=



000
FTUS45 KBOI 252334 CCA
TAFBNO
TAF COR
KBNO 252334Z 2600/2624 30015KT P6SM SKC
     FM260200 VRB05KT P6SM SKC=



000
FTUS45 KBOI 252333
TAFTWF
TAF
KTWF 252333Z 2600/2624 19015KT P6SM VCSH BKN090
     FM260300 19008KT P6SM BKN100
     FM261800 29007KT P6SM VCTS SCT060CB BKN100=



000
FTUS45 KBOI 252333
TAFMYL
TAF
KMYL 252333Z 2600/2624 VRB06KT P6SM -SHRA BKN060
     FM260900 VRB03KT P6SM FEW050
     FM261900 VRB06KT P6SM VCTS SCT060CB BKN100=



000
FTUS45 KBOI 252333
TAFJER
TAF
KJER 252333Z 2600/2624 19015KT P6SM BKN100
     FM260400 17006KT P6SM BKN120
     FM261800 VRB06KT P6SM VCTS SCT060CB BKN100=



000
FTUS45 KBOI 252333
TAFMYL
TAF
KMYL 252333Z 2600/2624 VRB06KT P6SM -SHRA BKN060
     FM260900 VRB03KT P6SM FEW050
     FM261900 VRB06KT P6SM VCTS SCT060CB BKN100=



000
FTUS45 KBOI 252333
TAFBKE
TAF
KBKE 252333Z 2600/2624 32012KT P6SM SKC
     FM260600 VRB03KT P6SM SKC
     FM261900 32007KT P6SM SCT120=



000
FTUS45 KBOI 252333
TAFBNO
TAF
KBNO 252333Z 2600/2624 20015KT P6SM BKN100
     FM260200 VRB05KT P6SM SKC=



000
FTUS45 KBOI 252333
TAFTWF
TAF
KTWF 252333Z 2600/2624 19015KT P6SM VCSH BKN090
     FM260300 19008KT P6SM BKN100
     FM261800 29007KT P6SM VCTS SCT060CB BKN100=



000
FTUS45 KBOI 252333
TAFMYL
TAF
KMYL 252333Z 2600/2624 VRB06KT P6SM -SHRA BKN060
     FM260900 VRB03KT P6SM FEW050
     FM261900 VRB06KT P6SM VCTS SCT060CB BKN100=



000
FTUS45 KBOI 252333
TAFBOI
TAF
KBOI 252333Z 2600/2624 VRB05KT P6SM VCTS BKN080CB
      TEMPO 2600/2602 VRB15G25KT
     FM260200 VRB05KT P6SM BKN100=



000
FTUS45 KBOI 252333
TAFBKE
TAF
KBKE 252333Z 2600/2624 32012KT P6SM SKC
     FM260600 VRB03KT P6SM SKC
     FM261900 32007KT P6SM SCT120=



000
FTUS45 KBOI 252333
TAFBOI
TAF
KBOI 252333Z 2600/2624 VRB05KT P6SM VCTS BKN080CB
      TEMPO 2600/2602 VRB15G25KT
     FM260200 VRB05KT P6SM BKN100=



000
FTUS45 KBOI 252333
TAFBNO
TAF
KBNO 252333Z 2600/2624 20015KT P6SM BKN100
     FM260200 VRB05KT P6SM SKC=



000
FTUS45 KBOI 252333
TAFJER
TAF
KJER 252333Z 2600/2624 19015KT P6SM BKN100
     FM260400 17006KT P6SM BKN120
     FM261800 VRB06KT P6SM VCTS SCT060CB BKN100=



000
FTUS45 KBOI 252333
TAFTWF
TAF
KTWF 252333Z 2600/2624 19015KT P6SM VCSH BKN090
     FM260300 19008KT P6SM BKN100
     FM261800 29007KT P6SM VCTS SCT060CB BKN100=



000
FTUS45 KBOI 252333
TAFTWF
TAF
KTWF 252333Z 2600/2624 19015KT P6SM VCSH BKN090
     FM260300 19008KT P6SM BKN100
     FM261800 29007KT P6SM VCTS SCT060CB BKN100=



000
FTUS45 KBOI 252333
TAFBOI
TAF
KBOI 252333Z 2600/2624 VRB05KT P6SM VCTS BKN080CB
      TEMPO 2600/2602 VRB15G25KT
     FM260200 VRB05KT P6SM BKN100=



000
FTUS45 KBOI 252333
TAFMYL
TAF
KMYL 252333Z 2600/2624 VRB06KT P6SM -SHRA BKN060
     FM260900 VRB03KT P6SM FEW050
     FM261900 VRB06KT P6SM VCTS SCT060CB BKN100=



000
FTUS45 KBOI 252333
TAFJER
TAF
KJER 252333Z 2600/2624 19015KT P6SM BKN100
     FM260400 17006KT P6SM BKN120
     FM261800 VRB06KT P6SM VCTS SCT060CB BKN100=



000
FTUS45 KBOI 252333
TAFBKE
TAF
KBKE 252333Z 2600/2624 32012KT P6SM SKC
     FM260600 VRB03KT P6SM SKC
     FM261900 32007KT P6SM SCT120=



000
FTUS45 KBOI 252333
TAFBNO
TAF
KBNO 252333Z 2600/2624 20015KT P6SM BKN100
     FM260200 VRB05KT P6SM SKC=



000
FTUS45 KBOI 252333
TAFJER
TAF
KJER 252333Z 2600/2624 19015KT P6SM BKN100
     FM260400 17006KT P6SM BKN120
     FM261800 VRB06KT P6SM VCTS SCT060CB BKN100=



000
FTUS45 KBOI 252333
TAFBOI
TAF
KBOI 252333Z 2600/2624 VRB05KT P6SM VCTS BKN080CB
      TEMPO 2600/2602 VRB15G25KT
     FM260200 VRB05KT P6SM BKN100=



000
FTUS45 KBOI 252333
TAFBKE
TAF
KBKE 252333Z 2600/2624 32012KT P6SM SKC
     FM260600 VRB03KT P6SM SKC
     FM261900 32007KT P6SM SCT120=



000
FTUS45 KBOI 252333
TAFBNO
TAF
KBNO 252333Z 2600/2624 20015KT P6SM BKN100
     FM260200 VRB05KT P6SM SKC=



000
FTUS45 KBOI 252147 CCA
TAFMYL
TAF COR
KMYL 252147Z 2522/2618 VRB06KT P6SM -SHRA FEW070 BKN100
      TEMPO 2522/2524 VRB12G22KT
     FM260900 VRB03KT P6SM FEW050=



000
FTUS45 KBOI 252147 CCA
TAFMYL
TAF COR
KMYL 252147Z 2522/2618 VRB06KT P6SM -SHRA FEW070 BKN100
      TEMPO 2522/2524 VRB12G22KT
     FM260900 VRB03KT P6SM FEW050=



000
FTUS45 KBOI 252147 CCA
TAFMYL
TAF COR
KMYL 252147Z 2522/2618 VRB06KT P6SM -SHRA FEW070 BKN100
      TEMPO 2522/2524 VRB12G22KT
     FM260900 VRB03KT P6SM FEW050=



000
FTUS45 KBOI 252147 CCA
TAFMYL
TAF COR
KMYL 252147Z 2522/2618 VRB06KT P6SM -SHRA FEW070 BKN100
      TEMPO 2522/2524 VRB12G22KT
     FM260900 VRB03KT P6SM FEW050=



000
FTUS45 KBOI 252146 AAB
TAFMYL
TAF AMD
KMYL 252146Z 2522/2618 VRB06KT P6SM -SHRA FEW070 BKN100
     FM260900 VRB03KT P6SM FEW050=



000
FTUS45 KBOI 252146 AAB
TAFMYL
TAF AMD
KMYL 252146Z 2522/2618 VRB06KT P6SM -SHRA FEW070 BKN100
     FM260900 VRB03KT P6SM FEW050=



000
FTUS45 KBOI 252144 AAA
TAFBNO
TAF AMD
KBNO 252144Z 2522/2618 24010G20KT P6SM BKN100
     FM260200 27005KT P6SM SKC=



000
FTUS45 KBOI 252144 AAA
TAFBNO
TAF AMD
KBNO 252144Z 2522/2618 24010G20KT P6SM BKN100
     FM260200 27005KT P6SM SKC=



000
FTUS45 KBOI 252144 AAA
TAFBNO
TAF AMD
KBNO 252144Z 2522/2618 24010G20KT P6SM BKN100
     FM260200 27005KT P6SM SKC=



000
FTUS45 KBOI 252141 AAB
TAFTWF
TAF AMD
KTWF 252141Z 2522/2618 VRB06KT P6SM VCTS SCT100CB
      TEMPO 2522/2602 VRB15G25KT 3SM -TSRA BKN050CB
     FM260300 18010KT P6SM VCSH BKN080=



000
FTUS45 KBOI 252141 AAB
TAFTWF
TAF AMD
KTWF 252141Z 2522/2618 VRB06KT P6SM VCTS SCT100CB
      TEMPO 2522/2602 VRB15G25KT 3SM -TSRA BKN050CB
     FM260300 18010KT P6SM VCSH BKN080=



000
FTUS45 KBOI 252114 AAB
TAFBOI
TAF AMD
KBOI 252114Z 2521/2618 32008KT P6SM VCTS BKN060CB
     FM260200 14005KT P6SM BKN100=



000
FTUS45 KBOI 252114 AAB
TAFBOI
TAF AMD
KBOI 252114Z 2521/2618 32008KT P6SM VCTS BKN060CB
     FM260200 14005KT P6SM BKN100=



000
FTUS45 KBOI 252114 AAB
TAFBOI
TAF AMD
KBOI 252114Z 2521/2618 32008KT P6SM VCTS BKN060CB
     FM260200 14005KT P6SM BKN100=



000
FTUS45 KBOI 252114 AAB
TAFBOI
TAF AMD
KBOI 252114Z 2521/2618 32008KT P6SM VCTS BKN060CB
     FM260200 14005KT P6SM BKN100=



000
FTUS45 KBOI 251943 AAA
TAFTWF
TAF AMD
KTWF 251943Z 2520/2618 28010KT P6SM VCTS BKN070CB BKN100
      TEMPO 2522/2602 VRB15G25KT 3SM -SHRA BKN045 OVC060
     FM260300 18010KT P6SM VCSH BKN080=



000
FTUS45 KBOI 251943 AAA
TAFTWF
TAF AMD
KTWF 251943Z 2520/2618 28010KT P6SM VCTS BKN070CB BKN100
      TEMPO 2522/2602 VRB15G25KT 3SM -SHRA BKN045 OVC060
     FM260300 18010KT P6SM VCSH BKN080=



000
FTUS45 KBOI 251915 AAA
TAFMYL
TAF AMD
KMYL 251915Z 2519/2618 VRB06KT P6SM VCTS BKN070CB
      TEMPO 2519/2523 -SHRA SCT070 BKN100
     FM260900 VRB03KT P6SM FEW050=



000
FTUS45 KBOI 251915 AAA
TAFMYL
TAF AMD
KMYL 251915Z 2519/2618 VRB06KT P6SM VCTS BKN070CB
      TEMPO 2519/2523 -SHRA SCT070 BKN100
     FM260900 VRB03KT P6SM FEW050=



000
FTUS45 KBOI 251728
TAFMYL
TAF
KMYL 251728Z 2518/2618 VRB03KT P6SM SCT200
     FM252200 23007KT P6SM VCSH BKN050 BKN100
     FM260900 VRB03KT P6SM FEW050=



000
FTUS45 KBOI 251728
TAFBOI
TAF
KBOI 251728Z 2518/2618 14008KT P6SM SCT100
     FM252100 32008KT P6SM VCSH BKN090 BKN200
     FM260200 14005KT P6SM BKN100=



000
FTUS45 KBOI 251728
TAFBNO
TAF
KBNO 251728Z 2518/2618 27006KT P6SM SCT070 BKN100
     FM252200 24010G16KT P6SM BKN100
     FM260200 27005KT P6SM SKC=



000
FTUS45 KBOI 251728
TAFJER
TAF
KJER 251728Z 2518/2618 11005KT P6SM SCT100
     FM252100 26010KT P6SM VCSH BKN080 BKN100
     FM260300 VRB06KT P6SM BKN120=



000
FTUS45 KBOI 251728
TAFTWF
TAF
KTWF 251728Z 2518/2618 18010KT P6SM BKN100
     FM252100 28010KT P6SM VCTS BKN070CB BKN100
      TEMPO 2523/2603 VRB15G25KT 3SM -SHRA BKN045 OVC060
     FM260300 18010KT P6SM VCSH BKN080=



000
FTUS45 KBOI 251728
TAFMYL
TAF
KMYL 251728Z 2518/2618 VRB03KT P6SM SCT200
     FM252200 23007KT P6SM VCSH BKN050 BKN100
     FM260900 VRB03KT P6SM FEW050=



000
FTUS45 KBOI 251728
TAFBKE
TAF
KBKE 251728Z 2518/2618 VRB05KT P6SM BKN150
     FM252000 32010KT P6SM BKN080
     FM260300 VRB05KT P6SM SCT100=



000
FTUS45 KBOI 251728
TAFJER
TAF
KJER 251728Z 2518/2618 11005KT P6SM SCT100
     FM252100 26010KT P6SM VCSH BKN080 BKN100
     FM260300 VRB06KT P6SM BKN120=



000
FTUS45 KBOI 251728
TAFBNO
TAF
KBNO 251728Z 2518/2618 27006KT P6SM SCT070 BKN100
     FM252200 24010G16KT P6SM BKN100
     FM260200 27005KT P6SM SKC=



000
FTUS45 KBOI 251728
TAFMYL
TAF
KMYL 251728Z 2518/2618 VRB03KT P6SM SCT200
     FM252200 23007KT P6SM VCSH BKN050 BKN100
     FM260900 VRB03KT P6SM FEW050=



000
FTUS45 KBOI 251728
TAFTWF
TAF
KTWF 251728Z 2518/2618 18010KT P6SM BKN100
     FM252100 28010KT P6SM VCTS BKN070CB BKN100
      TEMPO 2523/2603 VRB15G25KT 3SM -SHRA BKN045 OVC060
     FM260300 18010KT P6SM VCSH BKN080=



000
FTUS45 KBOI 251728
TAFBKE
TAF
KBKE 251728Z 2518/2618 VRB05KT P6SM BKN150
     FM252000 32010KT P6SM BKN080
     FM260300 VRB05KT P6SM SCT100=



000
FTUS45 KBOI 251728
TAFBOI
TAF
KBOI 251728Z 2518/2618 14008KT P6SM SCT100
     FM252100 32008KT P6SM VCSH BKN090 BKN200
     FM260200 14005KT P6SM BKN100=



000
FTUS45 KBOI 251728
TAFBOI
TAF
KBOI 251728Z 2518/2618 14008KT P6SM SCT100
     FM252100 32008KT P6SM VCSH BKN090 BKN200
     FM260200 14005KT P6SM BKN100=



000
FTUS45 KBOI 251728
TAFBNO
TAF
KBNO 251728Z 2518/2618 27006KT P6SM SCT070 BKN100
     FM252200 24010G16KT P6SM BKN100
     FM260200 27005KT P6SM SKC=



000
FTUS45 KBOI 251728
TAFJER
TAF
KJER 251728Z 2518/2618 11005KT P6SM SCT100
     FM252100 26010KT P6SM VCSH BKN080 BKN100
     FM260300 VRB06KT P6SM BKN120=



000
FTUS45 KBOI 251728
TAFTWF
TAF
KTWF 251728Z 2518/2618 18010KT P6SM BKN100
     FM252100 28010KT P6SM VCTS BKN070CB BKN100
      TEMPO 2523/2603 VRB15G25KT 3SM -SHRA BKN045 OVC060
     FM260300 18010KT P6SM VCSH BKN080=



000
FTUS45 KBOI 251728
TAFBKE
TAF
KBKE 251728Z 2518/2618 VRB05KT P6SM BKN150
     FM252000 32010KT P6SM BKN080
     FM260300 VRB05KT P6SM SCT100=



000
FTUS45 KBOI 251533 AAA
TAFBNO
TAF AMD
KBNO 251533Z 2516/2612 27007KT P6SM VCSH SCT070 BKN100
     FM252200 24010G16KT P6SM BKN100
     FM260200 27005KT P6SM SKC=



000
FTUS45 KBOI 251140
TAFTWF
TAF
KTWF 251140Z 2512/2612 18010KT P6SM BKN100
     FM252100 28010KT P6SM VCSH BKN070 BKN100
     FM260300 18010KT P6SM VCSH BKN080=



000
FTUS45 KBOI 251140
TAFBNO
TAF
KBNO 251140Z 2512/2612 27007KT P6SM SCT100
     FM252200 24010G16KT P6SM BKN100
     FM260200 27005KT P6SM SKC=



000
FTUS45 KBOI 251140
TAFBKE
TAF
KBKE 251140Z 2512/2612 VRB05KT P6SM BKN150
     FM252000 32010KT P6SM BKN080
     FM260300 VRB05KT P6SM SCT100=



000
FTUS45 KBOI 251140
TAFJER
TAF
KJER 251140Z 2512/2612 11005KT P6SM SCT100
     FM252100 26010KT P6SM VCSH BKN080 BKN100
     FM260300 VRB06KT P6SM BKN120=



000
FTUS45 KBOI 251140
TAFBOI
TAF
KBOI 251140Z 2512/2612 14008KT P6SM SCT100
     FM252100 32008KT P6SM VCSH BKN090 BKN200
     FM260200 14005KT P6SM BKN100=



000
FTUS45 KBOI 251140
TAFBNO
TAF
KBNO 251140Z 2512/2612 27007KT P6SM SCT100
     FM252200 24010G16KT P6SM BKN100
     FM260200 27005KT P6SM SKC=



000
FTUS45 KBOI 251140
TAFJER
TAF
KJER 251140Z 2512/2612 11005KT P6SM SCT100
     FM252100 26010KT P6SM VCSH BKN080 BKN100
     FM260300 VRB06KT P6SM BKN120=



000
FTUS45 KBOI 251140
TAFTWF
TAF
KTWF 251140Z 2512/2612 18010KT P6SM BKN100
     FM252100 28010KT P6SM VCSH BKN070 BKN100
     FM260300 18010KT P6SM VCSH BKN080=



000
FTUS45 KBOI 251140
TAFMYL
TAF
KMYL 251140Z 2512/2612 VRB03KT P6SM SCT200
     FM252200 23007KT P6SM VCSH BKN050 BKN100
     FM260900 VRB03KT P6SM VCFG FEW050=



000
FTUS45 KBOI 251140
TAFBKE
TAF
KBKE 251140Z 2512/2612 VRB05KT P6SM BKN150
     FM252000 32010KT P6SM BKN080
     FM260300 VRB05KT P6SM SCT100=



000
FTUS45 KBOI 251140
TAFBOI
TAF
KBOI 251140Z 2512/2612 14008KT P6SM SCT100
     FM252100 32008KT P6SM VCSH BKN090 BKN200
     FM260200 14005KT P6SM BKN100=



000
FTUS45 KBOI 251140
TAFBKE
TAF
KBKE 251140Z 2512/2612 VRB05KT P6SM BKN150
     FM252000 32010KT P6SM BKN080
     FM260300 VRB05KT P6SM SCT100=



000
FTUS45 KBOI 251140
TAFJER
TAF
KJER 251140Z 2512/2612 11005KT P6SM SCT100
     FM252100 26010KT P6SM VCSH BKN080 BKN100
     FM260300 VRB06KT P6SM BKN120=



000
FTUS45 KBOI 251140
TAFBNO
TAF
KBNO 251140Z 2512/2612 27007KT P6SM SCT100
     FM252200 24010G16KT P6SM BKN100
     FM260200 27005KT P6SM SKC=



000
FTUS45 KBOI 251140
TAFJER
TAF
KJER 251140Z 2512/2612 11005KT P6SM SCT100
     FM252100 26010KT P6SM VCSH BKN080 BKN100
     FM260300 VRB06KT P6SM BKN120=



000
FTUS45 KBOI 251140
TAFTWF
TAF
KTWF 251140Z 2512/2612 18010KT P6SM BKN100
     FM252100 28010KT P6SM VCSH BKN070 BKN100
     FM260300 18010KT P6SM VCSH BKN080=



000
FTUS45 KBOI 251140
TAFMYL
TAF
KMYL 251140Z 2512/2612 VRB03KT P6SM SCT200
     FM252200 23007KT P6SM VCSH BKN050 BKN100
     FM260900 VRB03KT P6SM VCFG FEW050=



000
FTUS45 KBOI 251140
TAFTWF
TAF
KTWF 251140Z 2512/2612 18010KT P6SM BKN100
     FM252100 28010KT P6SM VCSH BKN070 BKN100
     FM260300 18010KT P6SM VCSH BKN080=



000
FTUS45 KBOI 251140
TAFBNO
TAF
KBNO 251140Z 2512/2612 27007KT P6SM SCT100
     FM252200 24010G16KT P6SM BKN100
     FM260200 27005KT P6SM SKC=



000
FTUS45 KBOI 251140
TAFBOI
TAF
KBOI 251140Z 2512/2612 14008KT P6SM SCT100
     FM252100 32008KT P6SM VCSH BKN090 BKN200
     FM260200 14005KT P6SM BKN100=



000
FTUS45 KBOI 251140
TAFBKE
TAF
KBKE 251140Z 2512/2612 VRB05KT P6SM BKN150
     FM252000 32010KT P6SM BKN080
     FM260300 VRB05KT P6SM SCT100=



000
FTUS45 KBOI 251140
TAFBOI
TAF
KBOI 251140Z 2512/2612 14008KT P6SM SCT100
     FM252100 32008KT P6SM VCSH BKN090 BKN200
     FM260200 14005KT P6SM BKN100=



000
FTUS45 KBOI 250520
TAFBNO
TAF
KBNO 250520Z 2506/2606 VRB06KT P6SM SCT100
     FM252200 24010KT P6SM BKN100=



000
FTUS45 KBOI 250520
TAFTWF
TAF
KTWF 250520Z 2506/2606 18010KT P6SM SCT100
     FM251900 28010KT P6SM FEW120
     FM260300 20007KT P6SM BKN120=



000
FTUS45 KBOI 250520
TAFBOI
TAF
KBOI 250520Z 2506/2606 14008KT P6SM SKC
     FM251800 32008KT P6SM FEW100 BKN200
     FM260000 32008KT P6SM BKN100=



000
FTUS45 KBOI 250520
TAFTWF
TAF
KTWF 250520Z 2506/2606 18010KT P6SM SCT100
     FM251900 28010KT P6SM FEW120
     FM260300 20007KT P6SM BKN120=



000
FTUS45 KBOI 250520
TAFBOI
TAF
KBOI 250520Z 2506/2606 14008KT P6SM SKC
     FM251800 32008KT P6SM FEW100 BKN200
     FM260000 32008KT P6SM BKN100=



000
FTUS45 KBOI 250520
TAFJER
TAF
KJER 250520Z 2506/2606 10005KT P6SM FEW100
     FM251900 26012G20KT P6SM FEW120
     FM260300 VRB06KT P6SM BKN120=



000
FTUS45 KBOI 250520
TAFMYL
TAF
KMYL 250520Z 2506/2606 VRB03KT P6SM SKC
     FM250900 VRB03KT P6SM VCFG SCT200
     FM251500 VRB06KT P6SM SCT080 BKN120
     FM252200 26007KT P6SM VCSH SCT050 BKN100=



000
FTUS45 KBOI 250520
TAFBKE
TAF
KBKE 250520Z 2506/2606 VRB03KT P6SM SCT200
     FM252000 32010KT P6SM BKN080=



000
FTUS45 KBOI 250520
TAFBKE
TAF
KBKE 250520Z 2506/2606 VRB03KT P6SM SCT200
     FM252000 32010KT P6SM BKN080=



000
FTUS45 KBOI 250520
TAFJER
TAF
KJER 250520Z 2506/2606 10005KT P6SM FEW100
     FM251900 26012G20KT P6SM FEW120
     FM260300 VRB06KT P6SM BKN120=



000
FTUS45 KBOI 250520
TAFTWF
TAF
KTWF 250520Z 2506/2606 18010KT P6SM SCT100
     FM251900 28010KT P6SM FEW120
     FM260300 20007KT P6SM BKN120=



000
FTUS45 KBOI 250520
TAFJER
TAF
KJER 250520Z 2506/2606 10005KT P6SM FEW100
     FM251900 26012G20KT P6SM FEW120
     FM260300 VRB06KT P6SM BKN120=



000
FTUS45 KBOI 250520
TAFBOI
TAF
KBOI 250520Z 2506/2606 14008KT P6SM SKC
     FM251800 32008KT P6SM FEW100 BKN200
     FM260000 32008KT P6SM BKN100=



000
FTUS45 KBOI 250520
TAFBOI
TAF
KBOI 250520Z 2506/2606 14008KT P6SM SKC
     FM251800 32008KT P6SM FEW100 BKN200
     FM260000 32008KT P6SM BKN100=



000
FTUS45 KBOI 250520
TAFMYL
TAF
KMYL 250520Z 2506/2606 VRB03KT P6SM SKC
     FM250900 VRB03KT P6SM VCFG SCT200
     FM251500 VRB06KT P6SM SCT080 BKN120
     FM252200 26007KT P6SM VCSH SCT050 BKN100=



000
FTUS45 KBOI 250520
TAFMYL
TAF
KMYL 250520Z 2506/2606 VRB03KT P6SM SKC
     FM250900 VRB03KT P6SM VCFG SCT200
     FM251500 VRB06KT P6SM SCT080 BKN120
     FM252200 26007KT P6SM VCSH SCT050 BKN100=



000
FTUS45 KBOI 250520
TAFBNO
TAF
KBNO 250520Z 2506/2606 VRB06KT P6SM SCT100
     FM252200 24010KT P6SM BKN100=



000
FTUS45 KBOI 250520
TAFBKE
TAF
KBKE 250520Z 2506/2606 VRB03KT P6SM SCT200
     FM252000 32010KT P6SM BKN080=



000
FTUS45 KBOI 250520
TAFTWF
TAF
KTWF 250520Z 2506/2606 18010KT P6SM SCT100
     FM251900 28010KT P6SM FEW120
     FM260300 20007KT P6SM BKN120=



000
FTUS45 KBOI 250411 AAC
TAFBOI
TAF AMD
KBOI 250411Z 2504/2524 30010KT P6SM SCT200
     FM250415 15013KT P6SM SKC
     FM250600 15005KT P6SM SKC
     FM251800 32008KT P6SM FEW100 BKN200=



000
FTUS45 KBOI 250411 AAC
TAFBOI
TAF AMD
KBOI 250411Z 2504/2524 30010KT P6SM SCT200
     FM250415 15013KT P6SM SKC
     FM250600 15005KT P6SM SKC
     FM251800 32008KT P6SM FEW100 BKN200=



000
FTUS45 KBOI 250411 AAC
TAFBOI
TAF AMD
KBOI 250411Z 2504/2524 30010KT P6SM SCT200
     FM250415 15013KT P6SM SKC
     FM250600 15005KT P6SM SKC
     FM251800 32008KT P6SM FEW100 BKN200=



000
FTUS45 KBOI 250411 AAC
TAFBOI
TAF AMD
KBOI 250411Z 2504/2524 30010KT P6SM SCT200
     FM250415 15013KT P6SM SKC
     FM250600 15005KT P6SM SKC
     FM251800 32008KT P6SM FEW100 BKN200=



000
FTUS45 KBOI 250306 AAB
TAFTWF
TAF AMD
KTWF 250306Z 2503/2524 16008KT P6SM SCT050 BKN100
     FM250500 20010KT P6SM BKN100
     FM251900 28010KT P6SM FEW120=



000
FTUS45 KBOI 250306 AAB
TAFTWF
TAF AMD
KTWF 250306Z 2503/2524 16008KT P6SM SCT050 BKN100
     FM250500 20010KT P6SM BKN100
     FM251900 28010KT P6SM FEW120=



000
FTUS45 KBOI 250306 AAA
TAFJER
TAF AMD
KJER 250306Z 2503/2524 17010KT P6SM FEW090
     FM251900 26012G20KT P6SM FEW100=



000
FTUS45 KBOI 250306 AAA
TAFJER
TAF AMD
KJER 250306Z 2503/2524 17010KT P6SM FEW090
     FM251900 26012G20KT P6SM FEW100=



000
FTUS45 KBOI 250240 AAA
TAFTWF
TAF AMD
KTWF 250240Z 2503/2524 VRB05KT 3SM RA OVC050
     FM250400 VRB05KT P6SM SCT050 BKN100
     FM250500 20010KT P6SM BKN100
     FM251900 28010KT P6SM FEW120=



000
FTUS45 KBOI 250240 AAA
TAFTWF
TAF AMD
KTWF 250240Z 2503/2524 VRB05KT 3SM RA OVC050
     FM250400 VRB05KT P6SM SCT050 BKN100
     FM250500 20010KT P6SM BKN100
     FM251900 28010KT P6SM FEW120=



000
FTUS45 KBOI 250206 AAA
TAFBNO
TAF AMD
KBNO 250206Z 2502/2524 34010KT P6SM BKN090
     FM250300 VRB06KT P6SM SCT100=



000
FTUS45 KBOI 250206 AAA
TAFBNO
TAF AMD
KBNO 250206Z 2502/2524 34010KT P6SM BKN090
     FM250300 VRB06KT P6SM SCT100=



000
FTUS45 KBOI 250206 AAB
TAFBOI
TAF AMD
KBOI 250206Z 2502/2524 30010KT P6SM SCT200
     FM250400 VRB05KT P6SM SKC
     FM251800 32008KT P6SM FEW100 BKN200=



000
FTUS45 KBOI 250206 AAB
TAFBOI
TAF AMD
KBOI 250206Z 2502/2524 30010KT P6SM SCT200
     FM250400 VRB05KT P6SM SKC
     FM251800 32008KT P6SM FEW100 BKN200=



000
FTUS45 KBOI 250015 AAA
TAFMYL
TAF AMD
KMYL 250015Z 2500/2524 34012KT P6SM BKN070
     FM250400 35005KT P6SM FEW200
     FM250900 VRB03KT P6SM VCFG SCT200
     FM251500 VRB06KT P6SM SCT080 BKN120=



000
FTUS45 KBOI 250015 AAA
TAFMYL
TAF AMD
KMYL 250015Z 2500/2524 34012KT P6SM BKN070
     FM250400 35005KT P6SM FEW200
     FM250900 VRB03KT P6SM VCFG SCT200
     FM251500 VRB06KT P6SM SCT080 BKN120=



000
FTUS45 KBOI 250015 AAA
TAFMYL
TAF AMD
KMYL 250015Z 2500/2524 34012KT P6SM BKN070
     FM250400 35005KT P6SM FEW200
     FM250900 VRB03KT P6SM VCFG SCT200
     FM251500 VRB06KT P6SM SCT080 BKN120=



000
FTUS45 KBOI 250015 AAA
TAFMYL
TAF AMD
KMYL 250015Z 2500/2524 34012KT P6SM BKN070
     FM250400 35005KT P6SM FEW200
     FM250900 VRB03KT P6SM VCFG SCT200
     FM251500 VRB06KT P6SM SCT080 BKN120=



000
FTUS45 KBOI 242333
TAFJER
TAF
KJER 242333Z 2500/2524 VRB06KT P6SM VCTS BKN060CB
      TEMPO 2500/2502 VRB25G35KT 2SM TSRA OVC040CB
     FM250300 07014KT P6SM BKN080
     FM251900 26012G20KT P6SM FEW100=



000
FTUS45 KBOI 242333
TAFMYL
TAF
KMYL 242333Z 2500/2524 26012KT P6SM BKN090
     FM250400 35005KT P6SM FEW200
     FM250900 VRB03KT P6SM VCFG SCT200
     FM251500 VRB06KT P6SM SCT080 BKN120=



000
FTUS45 KBOI 242333
TAFBNO
TAF
KBNO 242333Z 2500/2524 29015KT P6SM FEW100
     FM250300 VRB06KT P6SM SCT100=



000
FTUS45 KBOI 242333
TAFBNO
TAF
KBNO 242333Z 2500/2524 29015KT P6SM FEW100
     FM250300 VRB06KT P6SM SCT100=



000
FTUS45 KBOI 242333
TAFJER
TAF
KJER 242333Z 2500/2524 VRB06KT P6SM VCTS BKN060CB
      TEMPO 2500/2502 VRB25G35KT 2SM TSRA OVC040CB
     FM250300 07014KT P6SM BKN080
     FM251900 26012G20KT P6SM FEW100=



000
FTUS45 KBOI 242333
TAFBKE
TAF
KBKE 242333Z 2500/2524 32015KT P6SM SKC
     FM250300 31005KT P6SM SCT200=



000
FTUS45 KBOI 242333
TAFBOI
TAF
KBOI 242333Z 2500/2524 30013G20KT P6SM SKC
     FM250400 VRB05KT P6SM SKC
     FM251800 32008KT P6SM FEW100 BKN200=



000
FTUS45 KBOI 242333
TAFTWF
TAF
KTWF 242333Z 2500/2524 VRB06KT P6SM VCTS SCT050CB BKN100
      TEMPO 2500/2502 VRB20G30KT 3SM TSRA OVC040CB
     FM250500 20010KT P6SM BKN100
     FM251900 28010KT P6SM FEW120=



000
FTUS45 KBOI 242333
TAFBOI
TAF
KBOI 242333Z 2500/2524 30013G20KT P6SM SKC
     FM250400 VRB05KT P6SM SKC
     FM251800 32008KT P6SM FEW100 BKN200=



000
FTUS45 KBOI 242333
TAFTWF
TAF
KTWF 242333Z 2500/2524 VRB06KT P6SM VCTS SCT050CB BKN100
      TEMPO 2500/2502 VRB20G30KT 3SM TSRA OVC040CB
     FM250500 20010KT P6SM BKN100
     FM251900 28010KT P6SM FEW120=



000
FTUS45 KBOI 242333
TAFMYL
TAF
KMYL 242333Z 2500/2524 26012KT P6SM BKN090
     FM250400 35005KT P6SM FEW200
     FM250900 VRB03KT P6SM VCFG SCT200
     FM251500 VRB06KT P6SM SCT080 BKN120=



000
FTUS45 KBOI 242333
TAFBKE
TAF
KBKE 242333Z 2500/2524 32015KT P6SM SKC
     FM250300 31005KT P6SM SCT200=



000
FTUS45 KBOI 242211 AAA
TAFTWF
TAF AMD
KTWF 242211Z 2422/2518 29010KT P6SM VCTS SCT040CB BKN060
      TEMPO 2422/2502 VRB20G30KT 3SM TSRA OVC040CB
     FM250300 20010KT P6SM BKN100=



000
FTUS45 KBOI 242211 AAA
TAFTWF
TAF AMD
KTWF 242211Z 2422/2518 29010KT P6SM VCTS SCT040CB BKN060
      TEMPO 2422/2502 VRB20G30KT 3SM TSRA OVC040CB
     FM250300 20010KT P6SM BKN100=



000
FTUS45 KBOI 242208 AAC
TAFJER
TAF AMD
KJER 242208Z 2422/2518 VRB06KT P6SM VCTS BKN060CB
      TEMPO 2422/2502 VRB25G35KT 2SM TSRA OVC060CB
     FM250300 14007KT P6SM BKN100=



000
FTUS45 KBOI 242208 AAC
TAFJER
TAF AMD
KJER 242208Z 2422/2518 VRB06KT P6SM VCTS BKN060CB
      TEMPO 2422/2502 VRB25G35KT 2SM TSRA OVC060CB
     FM250300 14007KT P6SM BKN100=



000
FTUS45 KBOI 242208 AAC
TAFJER
TAF AMD
KJER 242208Z 2422/2518 VRB06KT P6SM VCTS BKN060CB
      TEMPO 2422/2502 VRB25G35KT 2SM TSRA OVC060CB
     FM250300 14007KT P6SM BKN100=



000
FTUS45 KBOI 242113 AAB
TAFJER
TAF AMD
KJER 242113Z 2421/2518 25011KT P6SM VCTS BKN060CB
      TEMPO 2421/2501 2SM -SHRA OVC060
     FM250300 14007KT P6SM BKN100=



000
FTUS45 KBOI 242113 AAB
TAFJER
TAF AMD
KJER 242113Z 2421/2518 25011KT P6SM VCTS BKN060CB
      TEMPO 2421/2501 2SM -SHRA OVC060
     FM250300 14007KT P6SM BKN100=



000
FTUS45 KBOI 242113 AAB
TAFJER
TAF AMD
KJER 242113Z 2421/2518 25011KT P6SM VCTS BKN060CB
      TEMPO 2421/2501 2SM -SHRA OVC060
     FM250300 14007KT P6SM BKN100=



000
FTUS45 KBOI 242113 AAB
TAFJER
TAF AMD
KJER 242113Z 2421/2518 25011KT P6SM VCTS BKN060CB
      TEMPO 2421/2501 2SM -SHRA OVC060
     FM250300 14007KT P6SM BKN100=



000
FTUS45 KBOI 242058 AAA
TAFJER
TAF AMD
KJER 242058Z 2421/2518 25011KT P6SM VCTS BKN060CB
      TEMPO 2421/2501 -SHRA OVC060
     FM250300 14007KT P6SM BKN100=



000
FTUS45 KBOI 241722
TAFBNO
TAF
KBNO 241722Z 2418/2518 28008KT P6SM FEW100
     FM242100 29011KT P6SM VCSH BKN070 BKN100
     FM250300 27006KT P6SM SCT070=



000
FTUS45 KBOI 241722
TAFBKE
TAF
KBKE 241722Z 2418/2518 30012KT P6SM FEW100
     FM242000 32012G20KT P6SM BKN100
     FM250300 VRB05KT P6SM SCT200=



000
FTUS45 KBOI 241722
TAFBOI
TAF
KBOI 241722Z 2418/2518 30007KT P6SM FEW100
     FM242000 30012G20KT P6SM VCSH SCT080 BKN100
     FM250300 32005KT P6SM SKC=



000
FTUS45 KBOI 241722
TAFJER
TAF
KJER 241722Z 2418/2518 22007KT P6SM FEW015 BKN070
     FM242100 25011KT P6SM VCSH BKN100
      TEMPO 2422/2502 -SHRA OVC060
     FM250300 14007KT P6SM BKN100=



000
FTUS45 KBOI 241722
TAFTWF
TAF
KTWF 241722Z 2418/2518 25006KT P6SM VCSH BKN070
     FM242100 28011KT P6SM VCSH BKN100
      TEMPO 2422/2502 -SHRA OVC060
     FM250300 20010KT P6SM BKN100=



000
FTUS45 KBOI 241722
TAFMYL
TAF
KMYL 241722Z 2418/2518 VRB06KT P6SM FEW100
     FM242000 32008KT P6SM VCSH BKN080
     FM250200 35005KT P6SM FEW200
     FM250900 VRB03KT P6SM VCFG SCT200=



000
FTUS45 KBOI 241722
TAFBOI
TAF
KBOI 241722Z 2418/2518 30007KT P6SM FEW100
     FM242000 30012G20KT P6SM VCSH SCT080 BKN100
     FM250300 32005KT P6SM SKC=



000
FTUS45 KBOI 241722
TAFBNO
TAF
KBNO 241722Z 2418/2518 28008KT P6SM FEW100
     FM242100 29011KT P6SM VCSH BKN070 BKN100
     FM250300 27006KT P6SM SCT070=



000
FTUS45 KBOI 241722
TAFMYL
TAF
KMYL 241722Z 2418/2518 VRB06KT P6SM FEW100
     FM242000 32008KT P6SM VCSH BKN080
     FM250200 35005KT P6SM FEW200
     FM250900 VRB03KT P6SM VCFG SCT200=



000
FTUS45 KBOI 241722
TAFBKE
TAF
KBKE 241722Z 2418/2518 30012KT P6SM FEW100
     FM242000 32012G20KT P6SM BKN100
     FM250300 VRB05KT P6SM SCT200=



000
FTUS45 KBOI 241722
TAFTWF
TAF
KTWF 241722Z 2418/2518 25006KT P6SM VCSH BKN070
     FM242100 28011KT P6SM VCSH BKN100
      TEMPO 2422/2502 -SHRA OVC060
     FM250300 20010KT P6SM BKN100=



000
FTUS45 KBOI 241722
TAFJER
TAF
KJER 241722Z 2418/2518 22007KT P6SM FEW015 BKN070
     FM242100 25011KT P6SM VCSH BKN100
      TEMPO 2422/2502 -SHRA OVC060
     FM250300 14007KT P6SM BKN100=



000
FTUS45 KBOI 241238 AAA
TAFTWF
TAF AMD
KTWF 241238Z 2413/2512 20006KT P6SM BKN070
     FM242100 28011KT P6SM VCSH BKN100
     FM250300 20010KT P6SM BKN100=



000
FTUS45 KBOI 241238 AAA
TAFTWF
TAF AMD
KTWF 241238Z 2413/2512 20006KT P6SM BKN070
     FM242100 28011KT P6SM VCSH BKN100
     FM250300 20010KT P6SM BKN100=



000
FTUS45 KBOI 241138 CCA
TAFTWF
TAF COR
KTWF 241138Z 2412/2512 20006KT P6SM VCSH BKN070
      TEMPO 2412/2414 2SM BR BKN002
     FM242100 28011KT P6SM VCSH BKN100
     FM250300 20010KT P6SM BKN100=



000
FTUS45 KBOI 241138 CCA
TAFTWF
TAF COR
KTWF 241138Z 2412/2512 20006KT P6SM VCSH BKN070
      TEMPO 2412/2414 2SM BR BKN002
     FM242100 28011KT P6SM VCSH BKN100
     FM250300 20010KT P6SM BKN100=



000
FTUS45 KBOI 241138
TAFBKE
TAF
KBKE 241138Z 2412/2512 27007KT P6SM FEW100
     FM242000 32012G20KT P6SM BKN100
     FM250300 VRB05KT P6SM SCT200=



000
FTUS45 KBOI 241138
TAFBNO
TAF
KBNO 241138Z 2412/2512 28008KT P6SM FEW100
     FM242100 29011KT P6SM VCSH BKN070 BKN100
     FM250300 27006KT P6SM BKN070=



000
FTUS45 KBOI 241138
TAFMYL
TAF
KMYL 241138Z 2412/2512 36006KT P6SM FEW100
     FM242000 32008KT P6SM VCSH BKN080
     FM250200 35005KT P6SM FEW200
     FM250900 VRB03KT P6SM VCFG SCT200=



000
FTUS45 KBOI 241138
TAFMYL
TAF
KMYL 241138Z 2412/2512 36006KT P6SM FEW100
     FM242000 32008KT P6SM VCSH BKN080
     FM250200 35005KT P6SM FEW200
     FM250900 VRB03KT P6SM VCFG SCT200=



000
FTUS45 KBOI 241138
TAFJER
TAF
KJER 241138Z 2412/2512 05010KT P6SM BKN070
     FM242100 25011KT P6SM VCSH BKN100
     FM250300 14007KT P6SM BKN100=



000
FTUS45 KBOI 241138
TAFBOI
TAF
KBOI 241138Z 2412/2512 16007KT P6SM FEW100
     FM242000 30012G20KT P6SM VCSH SCT080 BKN100
     FM250300 32005KT P6SM SKC=



000
FTUS45 KBOI 241138
TAFMYL
TAF
KMYL 241138Z 2412/2512 36006KT P6SM FEW100
     FM242000 32008KT P6SM VCSH BKN080
     FM250200 35005KT P6SM FEW200
     FM250900 VRB03KT P6SM VCFG SCT200=



000
FTUS45 KBOI 241138
TAFBKE
TAF
KBKE 241138Z 2412/2512 27007KT P6SM FEW100
     FM242000 32012G20KT P6SM BKN100
     FM250300 VRB05KT P6SM SCT200=



000
FTUS45 KBOI 241138
TAFBNO
TAF
KBNO 241138Z 2412/2512 28008KT P6SM FEW100
     FM242100 29011KT P6SM VCSH BKN070 BKN100
     FM250300 27006KT P6SM BKN070=



000
FTUS45 KBOI 241138
TAFTWF
TAF
KTWF 241138Z 2412/2512 20006KT P6SM VCSH BKN070
     FM242100 28011KT P6SM VCSH BKN100
     FM250300 20010KT P6SM BKN100=



000
FTUS45 KBOI 241138
TAFMYL
TAF
KMYL 241138Z 2412/2512 36006KT P6SM FEW100
     FM242000 32008KT P6SM VCSH BKN080
     FM250200 35005KT P6SM FEW200
     FM250900 VRB03KT P6SM VCFG SCT200=



000
FTUS45 KBOI 241138
TAFTWF
TAF
KTWF 241138Z 2412/2512 20006KT P6SM VCSH BKN070
     FM242100 28011KT P6SM VCSH BKN100
     FM250300 20010KT P6SM BKN100=



000
FTUS45 KBOI 241138
TAFJER
TAF
KJER 241138Z 2412/2512 05010KT P6SM BKN070
     FM242100 25011KT P6SM VCSH BKN100
     FM250300 14007KT P6SM BKN100=



000
FTUS45 KBOI 241138
TAFTWF
TAF
KTWF 241138Z 2412/2512 20006KT P6SM VCSH BKN070
     FM242100 28011KT P6SM VCSH BKN100
     FM250300 20010KT P6SM BKN100=



000
FTUS45 KBOI 241138
TAFJER
TAF
KJER 241138Z 2412/2512 05010KT P6SM BKN070
     FM242100 25011KT P6SM VCSH BKN100
     FM250300 14007KT P6SM BKN100=



000
FTUS45 KBOI 241138
TAFBOI
TAF
KBOI 241138Z 2412/2512 16007KT P6SM FEW100
     FM242000 30012G20KT P6SM VCSH SCT080 BKN100
     FM250300 32005KT P6SM SKC=



000
FTUS45 KBOI 241138
TAFJER
TAF
KJER 241138Z 2412/2512 05010KT P6SM BKN070
     FM242100 25011KT P6SM VCSH BKN100
     FM250300 14007KT P6SM BKN100=



000
FTUS45 KBOI 241138
TAFBOI
TAF
KBOI 241138Z 2412/2512 16007KT P6SM FEW100
     FM242000 30012G20KT P6SM VCSH SCT080 BKN100
     FM250300 32005KT P6SM SKC=



000
FTUS45 KBOI 241138
TAFBNO
TAF
KBNO 241138Z 2412/2512 28008KT P6SM FEW100
     FM242100 29011KT P6SM VCSH BKN070 BKN100
     FM250300 27006KT P6SM BKN070=



000
FTUS45 KBOI 241138 CCA
TAFTWF
TAF COR
KTWF 241138Z 2412/2512 20006KT P6SM VCSH BKN070
      TEMPO 2412/2414 2SM BR BKN002
     FM242100 28011KT P6SM VCSH BKN100
     FM250300 20010KT P6SM BKN100=



000
FTUS45 KBOI 241138
TAFBKE
TAF
KBKE 241138Z 2412/2512 27007KT P6SM FEW100
     FM242000 32012G20KT P6SM BKN100
     FM250300 VRB05KT P6SM SCT200=



000
FTUS45 KBOI 241138
TAFBNO
TAF
KBNO 241138Z 2412/2512 28008KT P6SM FEW100
     FM242100 29011KT P6SM VCSH BKN070 BKN100
     FM250300 27006KT P6SM BKN070=



000
FTUS45 KBOI 241138
TAFTWF
TAF
KTWF 241138Z 2412/2512 20006KT P6SM VCSH BKN070
     FM242100 28011KT P6SM VCSH BKN100
     FM250300 20010KT P6SM BKN100=



000
FTUS45 KBOI 241138 CCA
TAFTWF
TAF COR
KTWF 241138Z 2412/2512 20006KT P6SM VCSH BKN070
      TEMPO 2412/2414 2SM BR BKN002
     FM242100 28011KT P6SM VCSH BKN100
     FM250300 20010KT P6SM BKN100=



000
FTUS45 KBOI 241138
TAFBOI
TAF
KBOI 241138Z 2412/2512 16007KT P6SM FEW100
     FM242000 30012G20KT P6SM VCSH SCT080 BKN100
     FM250300 32005KT P6SM SKC=



000
FTUS45 KBOI 241138
TAFBKE
TAF
KBKE 241138Z 2412/2512 27007KT P6SM FEW100
     FM242000 32012G20KT P6SM BKN100
     FM250300 VRB05KT P6SM SCT200=



    US Dept of Commerce
    National Oceanic and Atmospheric Administration
    National Weather Service
    1325 East West Highway
    Silver Spring, MD 20910
    Page Author: NWS Internet Services Team
Disclaimer
Information Quality
Credits
Glossary
Privacy Policy
Freedom of Information Act (FOIA)
About Us
Career Opportunities